createdAt,value
2017-07-12T00:00:00.152Z,17.86
2017-07-12T00:00:03.996Z,17.92
2017-07-12T00:00:08.204Z,17.94
2017-07-12T00:00:12.526Z,17.96
2017-07-12T00:00:16.871Z,17.89
2017-07-12T00:00:20.838Z,17.96
2017-07-12T00:00:24.921Z,17.89
2017-07-12T00:00:29.108Z,17.94
2017-07-12T00:00:33.292Z,17.95
2017-07-12T00:00:37.390Z,17.95
2017-07-12T00:00:41.728Z,17.92
2017-07-12T00:00:45.678Z,17.96
2017-07-12T00:00:49.873Z,17.95
2017-07-12T00:00:53.712Z,17.87
2017-07-12T00:00:57.546Z,17.89
2017-07-12T00:01:01.631Z,17.96
2017-07-12T00:01:05.594Z,17.92
2017-07-12T00:01:09.932Z,17.92
2017-07-12T00:01:14.016Z,17.95
2017-07-12T00:01:18.240Z,17.96
2017-07-12T00:01:22.184Z,17.94
2017-07-12T00:01:26.286Z,17.94
2017-07-12T00:01:30.485Z,17.92
2017-07-12T00:01:34.338Z,17.95
2017-07-12T00:01:38.294Z,17.91
2017-07-12T00:01:42.504Z,17.91
2017-07-12T00:01:46.977Z,17.91
2017-07-12T00:01:51.061Z,17.89
2017-07-12T00:01:54.875Z,17.91
2017-07-12T00:01:59.081Z,17.92
2017-07-12T00:02:03.321Z,17.91
2017-07-12T00:02:07.410Z,17.99
2017-07-12T00:02:11.627Z,17.95
2017-07-12T00:02:15.457Z,17.94
2017-07-12T00:02:19.673Z,17.94
2017-07-12T00:02:23.876Z,17.94
2017-07-12T00:02:28.088Z,17.92
2017-07-12T00:02:32.308Z,17.92
2017-07-12T00:02:36.252Z,17.94
2017-07-12T00:02:40.595Z,17.91
2017-07-12T00:02:44.922Z,17.92
2017-07-12T00:02:48.889Z,17.96
2017-07-12T00:02:52.713Z,17.87
2017-07-12T00:02:56.672Z,17.95
2017-07-12T00:03:00.881Z,17.87
2017-07-12T00:03:05.086Z,17.96
2017-07-12T00:03:08.923Z,17.92
2017-07-12T00:03:13.260Z,17.89
2017-07-12T00:03:17.455Z,17.92
2017-07-12T00:03:21.778Z,17.95
2017-07-12T00:03:25.853Z,17.87
2017-07-12T00:03:30.258Z,17.95
2017-07-12T00:03:34.201Z,17.89
2017-07-12T00:03:38.159Z,17.91
2017-07-12T00:03:42.243Z,17.92
2017-07-12T00:03:46.577Z,17.92
2017-07-12T00:03:50.661Z,17.95
2017-07-12T00:03:54.735Z,17.96
2017-07-12T00:03:58.824Z,17.95
2017-07-12T00:04:03.329Z,17.92
2017-07-12T00:04:07.157Z,17.92
2017-07-12T00:04:11.365Z,17.91
2017-07-12T00:04:15.711Z,17.87
2017-07-12T00:04:19.785Z,17.94
2017-07-12T00:04:23.742Z,17.92
2017-07-12T00:04:27.945Z,17.91
2017-07-12T00:04:31.763Z,17.87
2017-07-12T00:04:35.964Z,17.87
2017-07-12T00:04:40.041Z,17.91
2017-07-12T00:04:44.109Z,17.94
2017-07-12T00:04:48.070Z,17.87
2017-07-12T00:04:52.139Z,17.87
2017-07-12T00:04:56.225Z,17.98
2017-07-12T00:05:00.555Z,17.89
2017-07-12T00:05:04.389Z,17.92
2017-07-12T00:05:08.353Z,17.87
2017-07-12T00:05:12.694Z,17.92
2017-07-12T00:05:17.183Z,17.92
2017-07-12T00:05:21.402Z,17.95
2017-07-12T00:05:25.494Z,17.89
2017-07-12T00:05:29.575Z,17.94
2017-07-12T00:05:33.648Z,17.91
2017-07-12T00:05:37.477Z,17.94
2017-07-12T00:05:41.792Z,17.96
2017-07-12T00:05:46.126Z,17.94
2017-07-12T00:05:50.343Z,17.94
2017-07-12T00:05:54.547Z,17.92
2017-07-12T00:05:58.631Z,17.89
2017-07-12T00:06:02.593Z,17.91
2017-07-12T00:06:06.543Z,17.94
2017-07-12T00:06:10.490Z,17.91
2017-07-12T00:06:14.329Z,17.86
2017-07-12T00:06:18.413Z,17.91
2017-07-12T00:06:22.625Z,17.96
2017-07-12T00:06:26.576Z,17.89
2017-07-12T00:06:30.531Z,17.95
2017-07-12T00:06:34.352Z,17.89
2017-07-12T00:06:38.544Z,17.92
2017-07-12T00:06:42.737Z,17.91
2017-07-12T00:06:47.084Z,17.96
2017-07-12T00:06:51.056Z,17.89
2017-07-12T00:06:55.114Z,17.92
2017-07-12T00:06:59.071Z,17.95
2017-07-12T00:07:03.274Z,17.94
2017-07-12T00:07:07.485Z,17.98
2017-07-12T00:07:11.938Z,17.96
2017-07-12T00:07:16.164Z,17.92
2017-07-12T00:07:20.242Z,17.95
2017-07-12T00:07:24.070Z,17.91
2017-07-12T00:07:28.142Z,17.94
2017-07-12T00:07:32.099Z,17.91
2017-07-12T00:07:35.922Z,17.87
2017-07-12T00:07:39.633Z,17.96
2017-07-12T00:07:43.582Z,17.96
2017-07-12T00:07:47.906Z,17.95
2017-07-12T00:07:52.106Z,17.95
2017-07-12T00:07:55.798Z,17.92
2017-07-12T00:07:59.884Z,17.92
2017-07-12T00:08:03.945Z,17.95
2017-07-12T00:08:08.143Z,17.96
2017-07-12T00:08:12.347Z,17.95
2017-07-12T00:08:16.816Z,17.92
2017-07-12T00:08:21.159Z,17.95
2017-07-12T00:08:25.117Z,17.92
2017-07-12T00:08:28.926Z,17.87
2017-07-12T00:08:32.880Z,17.95
2017-07-12T00:08:37.231Z,17.95
2017-07-12T00:08:41.566Z,17.92
2017-07-12T00:08:45.651Z,17.94
2017-07-12T00:08:49.980Z,17.92
2017-07-12T00:08:54.196Z,17.91
2017-07-12T00:08:58.430Z,17.94
2017-07-12T00:09:02.475Z,17.99
2017-07-12T00:09:06.433Z,17.91
2017-07-12T00:09:10.506Z,17.95
2017-07-12T00:09:14.455Z,17.95
2017-07-12T00:09:18.652Z,17.89
2017-07-12T00:09:22.734Z,17.96
2017-07-12T00:09:26.689Z,17.94
2017-07-12T00:09:30.635Z,17.95
2017-07-12T00:09:34.602Z,17.98
2017-07-12T00:09:38.799Z,17.96
2017-07-12T00:09:43.073Z,17.91
2017-07-12T00:09:47.161Z,17.92
2017-07-12T00:09:50.997Z,17.89
2017-07-12T00:09:55.205Z,17.95
2017-07-12T00:09:59.547Z,17.92
2017-07-12T00:10:03.505Z,17.91
2017-07-12T00:10:07.467Z,17.95
2017-07-12T00:10:11.425Z,17.94
2017-07-12T00:10:15.759Z,17.95
2017-07-12T00:10:19.964Z,17.95
2017-07-12T00:10:23.671Z,17.95
2017-07-12T00:10:27.607Z,17.95
2017-07-12T00:10:31.683Z,17.86
2017-07-12T00:10:35.636Z,17.89
2017-07-12T00:10:39.855Z,17.92
2017-07-12T00:10:44.063Z,17.92
2017-07-12T00:10:48.389Z,17.95
2017-07-12T00:10:52.482Z,17.99
2017-07-12T00:10:56.434Z,17.87
2017-07-12T00:11:00.626Z,17.91
2017-07-12T00:11:05.173Z,17.98
2017-07-12T00:11:09.381Z,17.94
2017-07-12T00:11:13.461Z,17.92
2017-07-12T00:11:17.523Z,17.91
2017-07-12T00:11:21.851Z,17.92
2017-07-12T00:11:25.665Z,17.92
2017-07-12T00:11:30.054Z,17.95
2017-07-12T00:11:34.268Z,17.96
2017-07-12T00:11:38.461Z,17.96
2017-07-12T00:11:42.181Z,17.96
2017-07-12T00:11:46.390Z,17.95
2017-07-12T00:11:50.709Z,17.94
2017-07-12T00:11:54.917Z,17.94
2017-07-12T00:11:59.369Z,17.96
2017-07-12T00:12:03.454Z,17.94
2017-07-12T00:12:07.303Z,17.94
2017-07-12T00:12:11.636Z,17.94
2017-07-12T00:12:15.716Z,17.95
2017-07-12T00:12:19.662Z,17.99
2017-07-12T00:12:23.862Z,17.94
2017-07-12T00:12:27.819Z,17.91
2017-07-12T00:12:31.633Z,18.02
2017-07-12T00:12:35.853Z,17.87
2017-07-12T00:12:39.950Z,17.96
2017-07-12T00:12:44.291Z,17.95
2017-07-12T00:12:48.347Z,17.92
2017-07-12T00:12:52.427Z,17.96
2017-07-12T00:12:56.241Z,17.89
2017-07-12T00:13:00.332Z,17.96
2017-07-12T00:13:04.499Z,17.95
2017-07-12T00:13:08.697Z,17.95
2017-07-12T00:13:13.041Z,17.96
2017-07-12T00:13:17.253Z,17.95
2017-07-12T00:13:21.580Z,17.96
2017-07-12T00:13:25.660Z,17.96
2017-07-12T00:13:29.988Z,17.95
2017-07-12T00:13:34.069Z,17.95
2017-07-12T00:13:38.152Z,17.92
2017-07-12T00:13:42.285Z,17.94
2017-07-12T00:13:46.470Z,17.96
2017-07-12T00:13:50.669Z,17.86
2017-07-12T00:13:54.871Z,17.89
2017-07-12T00:13:59.072Z,17.95
2017-07-12T00:14:03.031Z,17.92
2017-07-12T00:14:06.858Z,17.96
2017-07-12T00:14:10.566Z,17.99
2017-07-12T00:14:14.532Z,17.89
2017-07-12T00:14:18.744Z,17.91
2017-07-12T00:14:23.083Z,17.98
2017-07-12T00:14:27.283Z,17.98
2017-07-12T00:14:31.227Z,18.02
2017-07-12T00:14:35.183Z,17.91
2017-07-12T00:14:39.135Z,17.91
2017-07-12T00:14:43.348Z,17.87
2017-07-12T00:14:47.051Z,17.98
2017-07-12T00:14:50.737Z,17.95
2017-07-12T00:14:54.830Z,17.91
2017-07-12T00:14:59.176Z,17.94
2017-07-12T00:15:03.307Z,17.89
2017-07-12T00:15:07.276Z,17.89
2017-07-12T00:15:11.114Z,17.92
2017-07-12T00:15:15.326Z,17.95
2017-07-12T00:15:19.523Z,17.95
2017-07-12T00:15:23.869Z,17.91
2017-07-12T00:15:28.084Z,17.89
2017-07-12T00:15:32.175Z,17.89
2017-07-12T00:15:36.128Z,17.89
2017-07-12T00:15:40.332Z,17.96
2017-07-12T00:15:44.402Z,17.89
2017-07-12T00:15:48.270Z,17.92
2017-07-12T00:15:52.224Z,17.95
2017-07-12T00:15:56.309Z,17.92
2017-07-12T00:16:00.394Z,17.98
2017-07-12T00:16:04.777Z,17.94
2017-07-12T00:16:08.718Z,17.92
2017-07-12T00:16:12.803Z,17.94
2017-07-12T00:16:17.143Z,17.99
2017-07-12T00:16:21.211Z,17.96
2017-07-12T00:16:25.175Z,17.95
2017-07-12T00:16:29.402Z,17.98
2017-07-12T00:16:33.348Z,17.94
2017-07-12T00:16:37.429Z,17.98
2017-07-12T00:16:41.635Z,17.95
2017-07-12T00:16:45.840Z,17.96
2017-07-12T00:16:50.055Z,17.96
2017-07-12T00:16:53.992Z,18.01
2017-07-12T00:16:57.839Z,17.94
2017-07-12T00:17:01.903Z,17.98
2017-07-12T00:17:05.999Z,17.94
2017-07-12T00:17:10.087Z,17.95
2017-07-12T00:17:14.178Z,18.02
2017-07-12T00:17:18.261Z,17.99
2017-07-12T00:17:22.591Z,17.98
2017-07-12T00:17:26.416Z,18.02
2017-07-12T00:17:30.496Z,17.98
2017-07-12T00:17:34.712Z,18.04
2017-07-12T00:17:38.662Z,17.99
2017-07-12T00:17:42.880Z,18.01
2017-07-12T00:17:47.216Z,17.89
2017-07-12T00:17:51.298Z,17.98
2017-07-12T00:17:55.493Z,17.92
2017-07-12T00:17:59.576Z,17.95
2017-07-12T00:18:03.610Z,17.99
2017-07-12T00:18:07.818Z,17.95
2017-07-12T00:18:11.776Z,17.99
2017-07-12T00:18:15.721Z,18.01
2017-07-12T00:18:20.044Z,17.96
2017-07-12T00:18:24.372Z,18.01
2017-07-12T00:18:28.345Z,17.96
2017-07-12T00:18:32.177Z,17.99
2017-07-12T00:18:36.266Z,17.96
2017-07-12T00:18:40.474Z,18.02
2017-07-12T00:18:44.944Z,17.98
2017-07-12T00:18:49.332Z,18.01
2017-07-12T00:18:53.038Z,17.94
2017-07-12T00:18:57.238Z,18.02
2017-07-12T00:19:01.317Z,17.98
2017-07-12T00:19:05.132Z,17.98
2017-07-12T00:19:09.085Z,17.98
2017-07-12T00:19:13.428Z,18.01
2017-07-12T00:19:17.895Z,17.98
2017-07-12T00:19:21.968Z,17.95
2017-07-12T00:19:26.170Z,17.98
2017-07-12T00:19:30.381Z,17.96
2017-07-12T00:19:34.339Z,17.98
2017-07-12T00:19:38.536Z,17.95
2017-07-12T00:19:42.608Z,18.02
2017-07-12T00:19:46.821Z,17.96
2017-07-12T00:19:51.028Z,17.99
2017-07-12T00:19:55.112Z,17.99
2017-07-12T00:19:59.209Z,17.99
2017-07-12T00:20:03.317Z,18.01
2017-07-12T00:20:07.268Z,17.94
2017-07-12T00:20:11.361Z,17.95
2017-07-12T00:20:15.467Z,17.95
2017-07-12T00:20:19.409Z,18.01
2017-07-12T00:20:23.869Z,18.01
2017-07-12T00:20:28.206Z,17.99
2017-07-12T00:20:32.403Z,18.01
2017-07-12T00:20:36.465Z,18.02
2017-07-12T00:20:40.548Z,17.99
2017-07-12T00:20:44.485Z,17.99
2017-07-12T00:20:48.808Z,17.95
2017-07-12T00:20:53.001Z,18.05
2017-07-12T00:20:57.350Z,17.91
2017-07-12T00:21:01.437Z,17.95
2017-07-12T00:21:05.388Z,18.04
2017-07-12T00:21:09.580Z,17.98
2017-07-12T00:21:13.410Z,17.98
2017-07-12T00:21:17.747Z,18.01
2017-07-12T00:21:21.713Z,17.99
2017-07-12T00:21:25.912Z,17.98
2017-07-12T00:21:29.853Z,17.92
2017-07-12T00:21:33.680Z,18.01
2017-07-12T00:21:37.768Z,17.99
2017-07-12T00:21:42.110Z,17.95
2017-07-12T00:21:45.951Z,17.99
2017-07-12T00:21:50.050Z,17.95
2017-07-12T00:21:54.259Z,17.96
2017-07-12T00:21:58.338Z,18.01
2017-07-12T00:22:02.184Z,17.99
2017-07-12T00:22:05.897Z,18.01
2017-07-12T00:22:09.604Z,17.99
2017-07-12T00:22:13.682Z,17.99
2017-07-12T00:22:17.509Z,17.98
2017-07-12T00:22:21.196Z,17.99
2017-07-12T00:22:24.883Z,17.96
2017-07-12T00:22:28.701Z,18.04
2017-07-12T00:22:32.411Z,17.99
2017-07-12T00:22:36.115Z,18.02
2017-07-12T00:22:39.813Z,17.99
2017-07-12T00:22:43.514Z,17.95
2017-07-12T00:22:47.345Z,17.95
2017-07-12T00:22:51.294Z,17.96
2017-07-12T00:22:54.997Z,17.98
2017-07-12T00:22:59.082Z,17.99
2017-07-12T00:23:02.899Z,17.99
2017-07-12T00:23:06.584Z,18.01
2017-07-12T00:23:10.283Z,17.96
2017-07-12T00:23:13.974Z,17.96
2017-07-12T00:23:17.801Z,18.05
2017-07-12T00:23:21.487Z,17.98
2017-07-12T00:23:25.188Z,17.96
2017-07-12T00:23:29.006Z,17.96
2017-07-12T00:23:32.819Z,18.01
2017-07-12T00:23:36.515Z,18.02
2017-07-12T00:23:40.218Z,17.99
2017-07-12T00:23:44.291Z,17.96
2017-07-12T00:23:48.117Z,17.96
2017-07-12T00:23:51.810Z,18.01
2017-07-12T00:23:55.632Z,17.95
2017-07-12T00:23:59.565Z,17.99
2017-07-12T00:24:03.272Z,17.99
2017-07-12T00:24:07.357Z,17.98
2017-07-12T00:24:11.188Z,18.01
2017-07-12T00:24:15.251Z,17.98
2017-07-12T00:24:19.581Z,18.02
2017-07-12T00:24:23.913Z,17.92
2017-07-12T00:24:28.113Z,17.99
2017-07-12T00:24:32.222Z,17.98
2017-07-12T00:24:36.171Z,17.91
2017-07-12T00:24:40.357Z,18.02
2017-07-12T00:24:44.196Z,17.96
2017-07-12T00:24:48.169Z,18.01
2017-07-12T00:24:52.397Z,17.96
2017-07-12T00:24:56.728Z,17.96
2017-07-12T00:25:01.061Z,18.07
2017-07-12T00:25:05.576Z,18.02
2017-07-12T00:25:09.535Z,18.04
2017-07-12T00:25:13.622Z,17.99
2017-07-12T00:25:17.584Z,18.02
2017-07-12T00:25:21.649Z,17.96
2017-07-12T00:25:25.980Z,18.04
2017-07-12T00:25:30.044Z,18.04
2017-07-12T00:25:33.873Z,17.95
2017-07-12T00:25:37.830Z,18.02
2017-07-12T00:25:41.907Z,17.98
2017-07-12T00:25:45.861Z,17.98
2017-07-12T00:25:49.826Z,18.05
2017-07-12T00:25:53.899Z,17.95
2017-07-12T00:25:57.969Z,17.95
2017-07-12T00:26:02.287Z,17.92
2017-07-12T00:26:06.248Z,17.94
2017-07-12T00:26:10.206Z,18.1
2017-07-12T00:26:14.025Z,18.09
2017-07-12T00:26:17.967Z,17.98
2017-07-12T00:26:22.044Z,18.02
2017-07-12T00:26:26.361Z,17.98
2017-07-12T00:26:30.317Z,18.14
2017-07-12T00:26:34.320Z,17.99
2017-07-12T00:26:38.414Z,18.04
2017-07-12T00:26:42.240Z,18.01
2017-07-12T00:26:46.569Z,18.14
2017-07-12T00:26:50.521Z,17.95
2017-07-12T00:26:54.591Z,17.95
2017-07-12T00:26:58.925Z,18.01
2017-07-12T00:27:03.079Z,17.95
2017-07-12T00:27:07.147Z,18.07
2017-07-12T00:27:11.351Z,18.13
2017-07-12T00:27:15.687Z,18.11
2017-07-12T00:27:19.885Z,18.07
2017-07-12T00:27:24.226Z,17.96
2017-07-12T00:27:28.413Z,18.07
2017-07-12T00:27:32.372Z,18.05
2017-07-12T00:27:36.458Z,18.13
2017-07-12T00:27:40.425Z,18.07
2017-07-12T00:27:44.644Z,18.09
2017-07-12T00:27:48.842Z,17.98
2017-07-12T00:27:53.168Z,18.09
2017-07-12T00:27:56.991Z,18.11
2017-07-12T00:28:01.075Z,18.05
2017-07-12T00:28:05.351Z,18.07
2017-07-12T00:28:09.432Z,18.07
2017-07-12T00:28:13.494Z,18.1
2017-07-12T00:28:17.429Z,18.07
2017-07-12T00:28:21.126Z,18.09
2017-07-12T00:28:24.819Z,17.99
2017-07-12T00:28:28.514Z,18.09
2017-07-12T00:28:32.328Z,18.07
2017-07-12T00:28:36.153Z,18.11
2017-07-12T00:28:40.346Z,18.09
2017-07-12T00:28:44.284Z,18.07
2017-07-12T00:28:48.111Z,18.1
2017-07-12T00:28:51.801Z,18.11
2017-07-12T00:28:55.505Z,18.11
2017-07-12T00:28:59.461Z,18.09
2017-07-12T00:29:03.458Z,18.11
2017-07-12T00:29:07.157Z,18.13
2017-07-12T00:29:11.362Z,18.1
2017-07-12T00:29:15.193Z,18.11
2017-07-12T00:29:19.406Z,18.13
2017-07-12T00:29:23.363Z,18.1
2017-07-12T00:29:27.597Z,18.09
2017-07-12T00:29:31.677Z,18.07
2017-07-12T00:29:35.884Z,18.1
2017-07-12T00:29:39.947Z,18.09
2017-07-12T00:29:44.146Z,18.1
2017-07-12T00:29:47.976Z,18.04
2017-07-12T00:29:52.177Z,18.11
2017-07-12T00:29:56.640Z,18.1
2017-07-12T00:30:00.605Z,18.09
2017-07-12T00:30:04.794Z,18.13
2017-07-12T00:30:08.876Z,18.13
2017-07-12T00:30:12.963Z,18.13
2017-07-12T00:30:17.183Z,18.13
2017-07-12T00:30:21.383Z,18.07
2017-07-12T00:30:25.579Z,18.13
2017-07-12T00:30:29.901Z,18.17
2017-07-12T00:30:33.991Z,18.11
2017-07-12T00:30:38.328Z,18.13
2017-07-12T00:30:42.674Z,18.05
2017-07-12T00:30:46.633Z,18.1
2017-07-12T00:30:50.848Z,18.07
2017-07-12T00:30:54.813Z,18.17
2017-07-12T00:30:59.032Z,18.05
2017-07-12T00:31:03.114Z,18.09
2017-07-12T00:31:07.071Z,18.09
2017-07-12T00:31:11.154Z,18.11
2017-07-12T00:31:15.221Z,18.11
2017-07-12T00:31:19.447Z,18.14
2017-07-12T00:31:23.653Z,18.04
2017-07-12T00:31:27.728Z,18.1
2017-07-12T00:31:31.807Z,18.14
2017-07-12T00:31:35.773Z,18.19
2017-07-12T00:31:40.173Z,18.16
2017-07-12T00:31:44.395Z,18.1
2017-07-12T00:31:48.351Z,18.14
2017-07-12T00:31:52.439Z,18.1
2017-07-12T00:31:56.889Z,18.1
2017-07-12T00:32:00.840Z,18.11
2017-07-12T00:32:05.086Z,18.11
2017-07-12T00:32:08.910Z,18.19
2017-07-12T00:32:12.988Z,18.14
2017-07-12T00:32:17.077Z,18.11
2017-07-12T00:32:21.593Z,18.09
2017-07-12T00:32:25.671Z,18.13
2017-07-12T00:32:29.616Z,18.19
2017-07-12T00:32:33.572Z,18.1
2017-07-12T00:32:37.774Z,18.11
2017-07-12T00:32:41.834Z,18.14
2017-07-12T00:32:46.179Z,18.17
2017-07-12T00:32:50.372Z,18.09
2017-07-12T00:32:54.459Z,18.13
2017-07-12T00:32:58.543Z,18.09
2017-07-12T00:33:02.706Z,18.16
2017-07-12T00:33:06.784Z,18.16
2017-07-12T00:33:10.869Z,18.14
2017-07-12T00:33:15.082Z,18.14
2017-07-12T00:33:19.534Z,18.19
2017-07-12T00:33:23.499Z,18.13
2017-07-12T00:33:27.585Z,18.13
2017-07-12T00:33:31.407Z,18.11
2017-07-12T00:33:35.217Z,18.1
2017-07-12T00:33:39.549Z,18.11
2017-07-12T00:33:44.008Z,18.11
2017-07-12T00:33:48.332Z,18.11
2017-07-12T00:33:52.295Z,18.14
2017-07-12T00:33:56.500Z,18.17
2017-07-12T00:34:00.703Z,18.16
2017-07-12T00:34:04.984Z,18.1
2017-07-12T00:34:09.319Z,18.11
2017-07-12T00:34:13.643Z,18.13
2017-07-12T00:34:17.963Z,18.14
2017-07-12T00:34:22.296Z,18.1
2017-07-12T00:34:26.505Z,18.11
2017-07-12T00:34:30.584Z,18.14
2017-07-12T00:34:34.553Z,18.17
2017-07-12T00:34:38.889Z,18.19
2017-07-12T00:34:42.850Z,18.13
2017-07-12T00:34:47.061Z,18.16
2017-07-12T00:34:51.263Z,18.17
2017-07-12T00:34:55.729Z,18.21
2017-07-12T00:35:00.046Z,18.17
2017-07-12T00:35:04.352Z,18.16
2017-07-12T00:35:08.433Z,18.16
2017-07-12T00:35:12.507Z,18.1
2017-07-12T00:35:16.726Z,18.2
2017-07-12T00:35:21.074Z,18.16
2017-07-12T00:35:25.161Z,18.16
2017-07-12T00:35:29.625Z,18.14
2017-07-12T00:35:33.582Z,18.13
2017-07-12T00:35:37.669Z,18.13
2017-07-12T00:35:41.615Z,18.13
2017-07-12T00:35:45.690Z,18.11
2017-07-12T00:35:50.013Z,18.11
2017-07-12T00:35:54.213Z,18.1
2017-07-12T00:35:58.183Z,18.2
2017-07-12T00:36:02.152Z,18.13
2017-07-12T00:36:06.377Z,18.16
2017-07-12T00:36:10.457Z,18.16
2017-07-12T00:36:14.423Z,18.17
2017-07-12T00:36:18.883Z,18.16
2017-07-12T00:36:22.849Z,18.16
2017-07-12T00:36:27.199Z,18.17
2017-07-12T00:36:31.411Z,18.1
2017-07-12T00:36:35.486Z,18.17
2017-07-12T00:36:39.432Z,18.09
2017-07-12T00:36:43.396Z,18.11
2017-07-12T00:36:47.236Z,18.16
2017-07-12T00:36:51.450Z,18.13
2017-07-12T00:36:55.795Z,18.17
2017-07-12T00:36:59.882Z,18.2
2017-07-12T00:37:03.834Z,18.09
2017-07-12T00:37:07.920Z,18.17
2017-07-12T00:37:12.021Z,18.1
2017-07-12T00:37:15.858Z,18.19
2017-07-12T00:37:19.569Z,18.16
2017-07-12T00:37:23.904Z,18.11
2017-07-12T00:37:28.106Z,18.16
2017-07-12T00:37:32.341Z,18.16
2017-07-12T00:37:36.419Z,18.13
2017-07-12T00:37:40.851Z,18.13
2017-07-12T00:37:44.804Z,18.13
2017-07-12T00:37:49.285Z,18.1
2017-07-12T00:37:53.246Z,18.2
2017-07-12T00:37:57.330Z,18.11
2017-07-12T00:38:01.295Z,18.19
2017-07-12T00:38:05.422Z,18.14
2017-07-12T00:38:09.632Z,18.09
2017-07-12T00:38:13.978Z,18.14
2017-07-12T00:38:18.435Z,18.11
2017-07-12T00:38:22.652Z,18.19
2017-07-12T00:38:26.871Z,18.2
2017-07-12T00:38:30.838Z,18.11
2017-07-12T00:38:34.549Z,18.09
2017-07-12T00:38:38.886Z,18.13
2017-07-12T00:38:42.711Z,18.07
2017-07-12T00:38:46.798Z,18.19
2017-07-12T00:38:50.996Z,18.11
2017-07-12T00:38:55.070Z,18.07
2017-07-12T00:38:59.282Z,18.14
2017-07-12T00:39:03.270Z,18.13
2017-07-12T00:39:07.217Z,18.13
2017-07-12T00:39:11.300Z,18.09
2017-07-12T00:39:15.381Z,18.16
2017-07-12T00:39:19.468Z,18.07
2017-07-12T00:39:23.553Z,18.16
2017-07-12T00:39:27.880Z,18.1
2017-07-12T00:39:31.821Z,18.11
2017-07-12T00:39:35.894Z,18.14
2017-07-12T00:39:40.221Z,18.09
2017-07-12T00:39:44.165Z,18.13
2017-07-12T00:39:48.478Z,18.09
2017-07-12T00:39:52.937Z,18.1
2017-07-12T00:39:57.008Z,18.11
2017-07-12T00:40:01.216Z,18.11
2017-07-12T00:40:05.124Z,18.09
2017-07-12T00:40:09.079Z,18.09
2017-07-12T00:40:13.163Z,18.07
2017-07-12T00:40:17.625Z,18.04
2017-07-12T00:40:21.825Z,18.1
2017-07-12T00:40:26.021Z,18.11
2017-07-12T00:40:30.106Z,18.09
2017-07-12T00:40:33.821Z,18.1
2017-07-12T00:40:37.907Z,18.13
2017-07-12T00:40:42.242Z,18.11
2017-07-12T00:40:46.696Z,18.04
2017-07-12T00:40:50.784Z,18.13
2017-07-12T00:40:54.995Z,18.09
2017-07-12T00:40:59.075Z,18.09
2017-07-12T00:41:03.147Z,18.02
2017-07-12T00:41:07.230Z,18.1
2017-07-12T00:41:11.050Z,18.14
2017-07-12T00:41:15.139Z,18.09
2017-07-12T00:41:19.340Z,18.11
2017-07-12T00:41:23.409Z,18.14
2017-07-12T00:41:27.496Z,18.11
2017-07-12T00:41:31.456Z,18.05
2017-07-12T00:41:35.660Z,18.14
2017-07-12T00:41:39.503Z,18.07
2017-07-12T00:41:43.714Z,18.11
2017-07-12T00:41:47.675Z,18.07
2017-07-12T00:41:52.013Z,17.99
2017-07-12T00:41:56.347Z,18.1
2017-07-12T00:42:00.694Z,18.07
2017-07-12T00:42:04.393Z,18.11
2017-07-12T00:42:08.470Z,18.11
2017-07-12T00:42:12.614Z,18.09
2017-07-12T00:42:16.703Z,18.1
2017-07-12T00:42:20.909Z,18.1
2017-07-12T00:42:25.247Z,18.13
2017-07-12T00:42:29.452Z,18.09
2017-07-12T00:42:33.275Z,18.1
2017-07-12T00:42:37.483Z,18.1
2017-07-12T00:42:41.690Z,18.11
2017-07-12T00:42:45.899Z,18.11
2017-07-12T00:42:50.113Z,18.09
2017-07-12T00:42:54.050Z,18.01
2017-07-12T00:42:58.396Z,18.07
2017-07-12T00:43:02.106Z,18.02
2017-07-12T00:43:06.201Z,18.1
2017-07-12T00:43:10.307Z,18.09
2017-07-12T00:43:14.152Z,18.07
2017-07-12T00:43:18.105Z,18.05
2017-07-12T00:43:22.330Z,18.07
2017-07-12T00:43:26.405Z,18.11
2017-07-12T00:43:30.622Z,18.14
2017-07-12T00:43:34.837Z,18.11
2017-07-12T00:43:38.927Z,18.1
2017-07-12T00:43:42.628Z,18.09
2017-07-12T00:43:46.566Z,18.09
2017-07-12T00:43:50.768Z,18.05
2017-07-12T00:43:54.852Z,18.1
2017-07-12T00:43:58.926Z,18.04
2017-07-12T00:44:02.634Z,18.09
2017-07-12T00:44:06.601Z,18.07
2017-07-12T00:44:10.682Z,18.09
2017-07-12T00:44:14.767Z,17.99
2017-07-12T00:44:19.107Z,17.98
2017-07-12T00:44:23.336Z,17.96
2017-07-12T00:44:27.671Z,18.07
2017-07-12T00:44:31.630Z,18.11
2017-07-12T00:44:35.833Z,18.11
2017-07-12T00:44:40.191Z,18.07
2017-07-12T00:44:44.541Z,18.07
2017-07-12T00:44:48.870Z,18.13
2017-07-12T00:44:52.808Z,18.05
2017-07-12T00:44:56.763Z,18.1
2017-07-12T00:45:00.726Z,18.07
2017-07-12T00:45:04.546Z,18.09
2017-07-12T00:45:08.622Z,18.04
2017-07-12T00:45:12.567Z,18.11
2017-07-12T00:45:16.900Z,18.09
2017-07-12T00:45:20.991Z,18.09
2017-07-12T00:45:25.338Z,18.07
2017-07-12T00:45:29.560Z,18.09
2017-07-12T00:45:33.383Z,18.01
2017-07-12T00:45:37.459Z,18.09
2017-07-12T00:45:41.686Z,18.13
2017-07-12T00:45:46.046Z,18.09
2017-07-12T00:45:50.389Z,18.11
2017-07-12T00:45:54.583Z,18.07
2017-07-12T00:45:58.795Z,18.01
2017-07-12T00:46:02.999Z,18.05
2017-07-12T00:46:06.947Z,18.11
2017-07-12T00:46:10.913Z,18.09
2017-07-12T00:46:14.731Z,18.05
2017-07-12T00:46:18.930Z,18.07
2017-07-12T00:46:23.123Z,17.99
2017-07-12T00:46:27.327Z,18.07
2017-07-12T00:46:31.284Z,18.11
2017-07-12T00:46:35.502Z,18.01
2017-07-12T00:46:39.835Z,18.09
2017-07-12T00:46:43.776Z,17.98
2017-07-12T00:46:47.615Z,18.04
2017-07-12T00:46:51.696Z,18.07
2017-07-12T00:46:55.981Z,17.94
2017-07-12T00:47:00.317Z,18.02
2017-07-12T00:47:04.400Z,17.99
2017-07-12T00:47:08.351Z,18.07
2017-07-12T00:47:12.172Z,18.1
2017-07-12T00:47:16.308Z,18.09
2017-07-12T00:47:20.531Z,18.01
2017-07-12T00:47:24.626Z,18.04
2017-07-12T00:47:28.698Z,17.99
2017-07-12T00:47:32.898Z,18.01
2017-07-12T00:47:37.241Z,17.99
2017-07-12T00:47:41.576Z,17.99
2017-07-12T00:47:45.656Z,17.95
2017-07-12T00:47:49.722Z,18.13
2017-07-12T00:47:54.049Z,17.98
2017-07-12T00:47:58.264Z,18.11
2017-07-12T00:48:02.582Z,18.01
2017-07-12T00:48:06.536Z,17.92
2017-07-12T00:48:10.874Z,18.05
2017-07-12T00:48:15.207Z,18.05
2017-07-12T00:48:19.415Z,17.95
2017-07-12T00:48:23.376Z,17.98
2017-07-12T00:48:27.871Z,18.07
2017-07-12T00:48:31.831Z,18.11
2017-07-12T00:48:35.768Z,17.99
2017-07-12T00:48:39.830Z,18.11
2017-07-12T00:48:43.899Z,17.96
2017-07-12T00:48:48.099Z,17.98
2017-07-12T00:48:52.185Z,17.99
2017-07-12T00:48:56.265Z,17.99
2017-07-12T00:49:00.346Z,17.98
2017-07-12T00:49:04.555Z,18.09
2017-07-12T00:49:08.961Z,17.96
2017-07-12T00:49:12.914Z,17.96
2017-07-12T00:49:16.884Z,17.98
2017-07-12T00:49:21.098Z,17.95
2017-07-12T00:49:24.910Z,17.99
2017-07-12T00:49:28.611Z,17.99
2017-07-12T00:49:32.824Z,17.96
2017-07-12T00:49:36.781Z,17.95
2017-07-12T00:49:40.976Z,17.95
2017-07-12T00:49:45.325Z,17.98
2017-07-12T00:49:49.655Z,17.99
2017-07-12T00:49:53.849Z,17.91
2017-07-12T00:49:58.292Z,18.01
2017-07-12T00:50:02.869Z,17.95
2017-07-12T00:50:06.947Z,17.92
2017-07-12T00:50:10.784Z,17.95
2017-07-12T00:50:15.102Z,17.96
2017-07-12T00:50:19.320Z,17.92
2017-07-12T00:50:23.392Z,17.94
2017-07-12T00:50:27.726Z,18.05
2017-07-12T00:50:31.688Z,17.95
2017-07-12T00:50:35.763Z,18.02
2017-07-12T00:50:39.839Z,18.02
2017-07-12T00:50:43.904Z,17.98
2017-07-12T00:50:48.239Z,17.96
2017-07-12T00:50:52.580Z,17.95
2017-07-12T00:50:56.795Z,17.96
2017-07-12T00:51:01.117Z,17.92
2017-07-12T00:51:04.934Z,17.94
2017-07-12T00:51:09.004Z,18.02
2017-07-12T00:51:13.085Z,18.02
2017-07-12T00:51:17.427Z,17.99
2017-07-12T00:51:21.499Z,17.95
2017-07-12T00:51:25.469Z,18.04
2017-07-12T00:51:29.805Z,18.01
2017-07-12T00:51:33.992Z,17.99
2017-07-12T00:51:38.192Z,17.99
2017-07-12T00:51:42.531Z,17.92
2017-07-12T00:51:46.744Z,17.91
2017-07-12T00:51:50.942Z,17.91
2017-07-12T00:51:55.154Z,17.92
2017-07-12T00:51:59.338Z,17.95
2017-07-12T00:52:03.404Z,17.95
2017-07-12T00:52:07.355Z,17.99
2017-07-12T00:52:11.687Z,18.01
2017-07-12T00:52:15.889Z,17.96
2017-07-12T00:52:20.234Z,17.98
2017-07-12T00:52:24.455Z,17.99
2017-07-12T00:52:28.778Z,17.95
2017-07-12T00:52:32.966Z,18.01
2017-07-12T00:52:37.288Z,17.99
2017-07-12T00:52:41.494Z,17.99
2017-07-12T00:52:45.834Z,17.99
2017-07-12T00:52:49.905Z,18.04
2017-07-12T00:52:54.228Z,17.99